Time;durP1;ratioP1;P1;durP2;ratioP2;P2;SDS_P1;SDS_P2;PMS_P1;PMS_P2;Temp;Humidity;BMP_temperature;BMP_pressure;BME280_temperature;BME280_humidity;BME280_pressure;Samples;Min_cycle;Max_cycle;Signal;HPM_P1;HPM_P2
2021/05/23 00:00:38;;;;;;;2.53;0.60;;;;;;;10.16;nan;100135.44;5089842;28;20085;-72
2021/05/23 00:03:07;;;;;;;1.25;0.73;;;;;;;10.11;nan;100135.09;5085142;28;20055;-72
2021/05/23 00:05:34;;;;;;;3.38;1.10;;;;;;;10.10;nan;100134.25;5071261;28;20493;-72
2021/05/23 00:08:04;;;;;;;1.85;0.90;;;;;;;10.08;nan;100127.47;5085407;28;20492;-72
2021/05/23 00:10:31;;;;;;;1.38;0.70;;;;;;;10.16;nan;100140.75;5071294;28;20047;-72
2021/05/23 00:12:59;;;;;;;2.47;0.80;;;;;;;10.23;nan;100131.19;5091663;28;20569;-72
2021/05/23 00:15:31;;;;;;;2.38;0.98;;;;;;;10.29;nan;100132.38;5090427;28;20123;-72
2021/05/23 00:17:57;;;;;;;1.60;0.60;;;;;;;10.29;nan;100119.16;5071691;28;20070;-72
2021/05/23 00:20:25;;;;;;;1.60;0.80;;;;;;;10.28;nan;100133.34;5089362;28;20599;-72
2021/05/23 00:22:52;;;;;;;1.80;0.70;;;;;;;10.32;nan;100121.47;5072401;28;20040;-72
2021/05/23 00:25:20;;;;;;;1.48;0.70;;;;;;;10.37;nan;100121.84;5084096;28;20173;-72
2021/05/23 00:27:47;;;;;;;2.20;0.80;;;;;;;10.35;nan;100115.91;5089810;28;20191;-72
2021/05/23 00:30:15;;;;;;;1.90;0.70;;;;;;;10.31;nan;100128.59;5085954;28;20040;-72
2021/05/23 00:32:44;;;;;;;2.05;0.73;;;;;;;10.28;nan;100128.91;5069484;28;20090;-72
2021/05/23 00:35:11;;;;;;;1.17;0.60;;;;;;;10.25;nan;100136.28;5083085;28;20614;-72
2021/05/23 00:37:38;;;;;;;0.77;0.50;;;;;;;10.23;nan;100125.91;5088776;28;20033;-72
2021/05/23 00:40:09;;;;;;;1.73;0.60;;;;;;;10.25;nan;100120.44;5088844;28;20073;-73
2021/05/23 00:42:35;;;;;;;1.02;0.60;;;;;;;10.30;nan;100126.94;5089768;28;20036;-72
2021/05/23 00:45:05;;;;;;;2.25;0.80;;;;;;;10.37;nan;100124.50;5071657;28;20481;-72
2021/05/23 00:47:31;;;;;;;1.70;0.70;;;;;;;10.38;nan;100129.59;5074963;28;20507;-72
2021/05/23 00:49:57;;;;;;;1.35;0.63;;;;;;;10.42;nan;100124.84;5087377;28;20047;-72
2021/05/23 00:52:23;;;;;;;2.38;0.90;;;;;;;10.37;nan;100127.97;5088172;28;20036;-72
2021/05/23 00:54:49;;;;;;;4.03;0.82;;;;;;;10.32;nan;100117.06;5084610;28;20430;-72
2021/05/23 00:57:15;;;;;;;1.73;0.80;;;;;;;10.25;nan;100118.66;5089564;28;20036;-72
2021/05/23 00:59:42;;;;;;;0.90;0.70;;;;;;;10.20;nan;100119.13;5084570;28;20120;-72
2021/05/23 01:02:07;;;;;;;0.95;0.70;;;;;;;10.16;nan;100124.88;5071777;28;20028;-73
2021/05/23 01:04:34;;;;;;;1.60;0.70;;;;;;;10.16;nan;100124.88;5072339;28;20439;-72
2021/05/23 01:07:00;;;;;;;2.28;0.90;;;;;;;10.18;nan;100128.19;5085136;28;20138;-72
2021/05/23 01:09:26;;;;;;;1.67;0.80;;;;;;;10.13;nan;100136.59;5081642;28;20390;-72
2021/05/23 01:12:13;;;;;;;1.75;0.95;;;;;;;10.14;nan;100138.25;5088934;28;20105;-72
2021/05/23 01:14:51;;;;;;;2.33;0.80;;;;;;;10.17;nan;100137.91;5040711;28;20056;-72
2021/05/23 01:17:20;;;;;;;1.85;0.70;;;;;;;10.24;nan;100135.47;5069789;28;20036;-72
2021/05/23 01:20:30;;;;;;;2.40;1.00;;;;;;;10.21;nan;100139.25;5087296;28;20028;-72
2021/05/23 01:23:06;;;;;;;1.75;0.98;;;;;;;10.15;nan;100128.50;5049810;28;20044;-74
2021/05/23 01:25:39;;;;;;;2.25;0.98;;;;;;;10.14;nan;100134.78;5065898;28;20044;-72
2021/05/23 01:28:07;;;;;;;1.55;0.70;;;;;;;10.12;nan;100131.47;5067855;28;20090;-73
2021/05/23 01:30:42;;;;;;;2.13;0.73;;;;;;;10.10;nan;100130.78;5050728;28;20037;-72
2021/05/23 01:33:08;;;;;;;1.60;0.65;;;;;;;10.06;nan;100132.09;5052942;28;20263;-72
2021/05/23 01:35:36;;;;;;;1.10;0.60;;;;;;;10.06;nan;100132.09;5047955;28;20059;-72
2021/05/23 01:38:06;;;;;;;1.25;0.60;;;;;;;10.10;nan;100131.59;5049893;28;20032;-72
2021/05/23 01:40:35;;;;;;;1.67;0.60;;;;;;;10.16;nan;100141.56;5067300;28;20032;-72
2021/05/23 01:43:01;;;;;;;1.45;0.90;;;;;;;10.23;nan;100139.13;5068863;28;20044;-72
2021/05/23 01:45:29;;;;;;;3.13;0.80;;;;;;;10.26;nan;100140.59;5060702;28;20034;-72
2021/05/23 01:47:56;;;;;;;1.23;0.70;;;;;;;10.23;nan;100148.88;5087259;28;20681;-72
2021/05/23 01:50:23;;;;;;;1.27;0.73;;;;;;;10.21;nan;100149.84;5081958;28;20434;-73
2021/05/23 01:52:52;;;;;;;2.38;0.90;;;;;;;10.26;nan;100152.00;5070964;28;20504;-72
2021/05/23 01:55:18;;;;;;;2.50;0.75;;;;;;;10.24;nan;100153.97;5066131;28;20067;-72
2021/05/23 01:57:46;;;;;;;1.63;0.75;;;;;;;10.29;nan;100161.44;5069924;28;20037;-72
2021/05/23 02:00:15;;;;;;;2.30;0.90;;;;;;;10.26;nan;100162.56;5072079;28;20032;-73
2021/05/23 02:02:41;;;;;;;3.55;1.00;;;;;;;10.30;nan;100163.13;5084496;28;20032;-72
2021/05/23 02:05:09;;;;;;;1.92;0.90;;;;;;;10.36;nan;100171.22;5068557;28;20050;-72
2021/05/23 02:07:37;;;;;;;1.52;0.80;;;;;;;10.42;nan;100177.72;5070215;28;20566;-72
2021/05/23 02:10:16;;;;;;;2.15;0.70;;;;;;;10.41;nan;100174.22;5079742;28;20071;-72
2021/05/23 02:12:45;;;;;;;2.75;1.00;;;;;;;10.48;nan;100173.59;5081731;28;20075;-72
2021/05/23 02:15:15;;;;;;;2.30;0.80;;;;;;;10.48;nan;100181.53;5069420;28;20084;-72
2021/05/23 02:17:42;;;;;;;4.93;0.93;;;;;;;10.52;nan;100182.88;5066746;28;20066;-72
2021/05/23 02:20:13;;;;;;;4.53;1.13;;;;;;;10.53;nan;100187.16;5059986;28;20044;-72
2021/05/23 02:22:41;;;;;;;3.10;0.90;;;;;;;10.52;nan;100199.56;5086270;28;20058;-72
2021/05/23 02:25:13;;;;;;;2.13;0.93;;;;;;;10.51;nan;100197.06;5082356;28;20291;-72
2021/05/23 02:27:48;;;;;;;2.90;1.08;;;;;;;10.49;nan;100204.34;5064088;28;20111;-72
2021/05/23 02:30:25;;;;;;;3.65;0.93;;;;;;;10.46;nan;100210.75;5048356;28;20144;-73
2021/05/23 02:32:51;;;;;;;1.85;0.80;;;;;;;10.40;nan;100214.84;5050753;28;20040;-72
2021/05/23 02:35:21;;;;;;;0.95;0.70;;;;;;;10.45;nan;100214.38;5061587;28;20223;-72
2021/05/23 02:37:46;;;;;;;2.92;0.95;;;;;;;10.45;nan;100216.22;5072606;28;20024;-72
2021/05/23 02:40:15;;;;;;;1.20;0.68;;;;;;;10.46;nan;100210.75;5087982;28;20068;-73
2021/05/23 02:42:41;;;;;;;1.85;0.75;;;;;;;10.44;nan;100209.25;5084086;28;20028;-72
2021/05/23 02:45:12;;;;;;;2.20;0.75;;;;;;;10.46;nan;100202.00;5068665;28;20056;-72
2021/05/23 02:47:40;;;;;;;2.35;0.73;;;;;;;10.41;nan;100200.66;5069149;28;20512;-72
2021/05/23 02:50:09;;;;;;;1.55;0.60;;;;;;;10.37;nan;100199.31;5053288;28;20086;-73
2021/05/23 02:52:35;;;;;;;2.65;0.77;;;;;;;10.45;nan;100203.00;5074444;28;20115;-72
2021/05/23 02:55:01;;;;;;;1.05;0.60;;;;;;;10.45;nan;100213.56;5070535;28;20035;-72
2021/05/23 02:57:26;;;;;;;1.15;0.50;;;;;;;10.45;nan;100224.97;5090877;28;20374;-72
2021/05/23 02:59:52;;;;;;;1.58;0.60;;;;;;;10.48;nan;100229.91;5070917;28;20095;-72
2021/05/23 03:02:18;;;;;;;1.17;0.55;;;;;;;10.44;nan;100227.75;5066233;28;20597;-73
2021/05/23 03:04:43;;;;;;;1.83;0.60;;;;;;;10.42;nan;100230.56;5063716;28;20128;-72
2021/05/23 03:07:10;;;;;;;2.47;0.70;;;;;;;10.41;nan;100229.72;5069826;28;20501;-72
2021/05/23 03:09:35;;;;;;;3.25;0.73;;;;;;;10.40;nan;100230.72;5067252;28;20111;-72
2021/05/23 03:12:01;;;;;;;1.17;0.80;;;;;;;10.41;nan;100237.66;5065530;28;20124;-73
2021/05/23 03:14:26;;;;;;;0.93;0.68;;;;;;;10.46;nan;100239.00;5067983;28;20436;-73
2021/05/23 03:16:52;;;;;;;2.28;0.50;;;;;;;10.41;nan;100245.59;5070230;28;20684;-72
2021/05/23 03:19:17;;;;;;;1.25;0.70;;;;;;;10.41;nan;100253.50;5067532;28;20036;-72
2021/05/23 03:21:42;;;;;;;0.68;0.50;;;;;;;10.43;nan;100257.81;5069881;28;20037;-72
2021/05/23 03:24:08;;;;;;;0.73;0.40;;;;;;;10.39;nan;100257.31;5069433;28;20048;-72
2021/05/23 03:26:34;;;;;;;2.83;0.70;;;;;;;10.43;nan;100265.75;5068703;28;20086;-71
2021/05/23 03:28:59;;;;;;;3.33;0.88;;;;;;;10.45;nan;100269.91;5070733;28;20039;-72
2021/05/23 03:31:25;;;;;;;1.00;0.60;;;;;;;10.40;nan;100270.38;5066719;28;20087;-73
2021/05/23 03:33:50;;;;;;;1.80;0.60;;;;;;;10.43;nan;100274.50;5066149;28;20075;-72
2021/05/23 03:36:16;;;;;;;1.73;0.90;;;;;;;10.43;nan;100274.50;5071465;28;20036;-73
2021/05/23 03:38:47;;;;;;;1.27;0.60;;;;;;;10.50;nan;100275.53;5086372;28;20032;-72
2021/05/23 03:41:14;;;;;;;0.90;0.60;;;;;;;10.44;nan;100278.81;5071264;28;20429;-72
2021/05/23 03:43:39;;;;;;;2.38;0.88;;;;;;;10.48;nan;100282.78;5053200;28;20134;-72
2021/05/23 03:46:05;;;;;;;2.63;0.70;;;;;;;10.44;nan;100286.75;5070727;28;20048;-74
2021/05/23 03:48:30;;;;;;;2.15;0.70;;;;;;;10.52;nan;100281.50;5070319;28;20044;-72
2021/05/23 03:50:55;;;;;;;1.90;0.70;;;;;;;10.44;nan;100280.63;5071819;28;20098;-72
2021/05/23 03:53:21;;;;;;;2.08;0.82;;;;;;;10.47;nan;100275.03;5071125;28;20078;-72
2021/05/23 03:55:47;;;;;;;4.80;0.70;;;;;;;10.43;nan;100278.97;5071294;28;20386;-72
2021/05/23 03:58:12;;;;;;;0.50;0.47;;;;;;;10.43;nan;100276.34;5069447;28;20085;-72
2021/05/23 04:00:38;;;;;;;1.42;0.70;;;;;;;10.36;nan;100276.94;5070470;28;20135;-72
2021/05/23 04:03:04;;;;;;;1.05;0.60;;;;;;;10.35;nan;100282.41;5071916;28;20265;-72
2021/05/23 04:05:30;;;;;;;1.63;0.70;;;;;;;10.32;nan;100278.25;5071096;28;20032;-72
2021/05/23 04:07:57;;;;;;;1.67;0.60;;;;;;;10.38;nan;100280.25;5072367;28;20576;-72
2021/05/23 04:10:26;;;;;;;1.88;0.60;;;;;;;10.39;nan;100283.72;5073990;28;20049;-72
2021/05/23 04:12:53;;;;;;;2.15;0.75;;;;;;;10.46;nan;100299.81;5084729;28;20500;-72
2021/05/23 04:15:19;;;;;;;1.42;0.75;;;;;;;10.45;nan;100295.50;5083866;28;20041;-72
2021/05/23 04:17:45;;;;;;;1.95;0.85;;;;;;;10.41;nan;100300.28;5078091;28;20535;-72
2021/05/23 04:20:13;;;;;;;3.65;0.80;;;;;;;10.48;nan;100298.66;5076400;28;20423;-72
2021/05/23 04:22:39;;;;;;;1.38;0.63;;;;;;;10.58;nan;100294.09;5071599;28;20513;-72
2021/05/23 04:25:09;;;;;;;1.50;0.75;;;;;;;10.61;nan;100311.47;5069443;28;20132;-72
2021/05/23 04:27:36;;;;;;;2.60;0.80;;;;;;;10.65;nan;100306.69;5067329;28;20063;-72
2021/05/23 04:30:03;;;;;;;1.75;0.70;;;;;;;10.66;nan;100318.94;5077320;28;20132;-72
2021/05/23 04:32:28;;;;;;;1.77;0.95;;;;;;;10.67;nan;100329.34;5072263;28;20463;-72
2021/05/23 04:34:54;;;;;;;4.47;0.80;;;;;;;10.80;nan;100323.63;5065434;28;20233;-72
2021/05/23 04:37:19;;;;;;;3.75;0.90;;;;;;;11.02;nan;100335.47;5078735;28;20496;-72
2021/05/23 04:39:44;;;;;;;2.10;0.70;;;;;;;11.05;nan;100338.59;5089372;28;20028;-72
2021/05/23 04:42:10;;;;;;;1.42;0.70;;;;;;;11.19;nan;100341.63;5083330;28;20039;-72
2021/05/23 04:44:35;;;;;;;2.10;0.80;;;;;;;11.29;nan;100352.91;5074241;28;20029;-72
2021/05/23 04:47:01;;;;;;;1.80;0.70;;;;;;;11.47;nan;100350.97;5066148;28;20072;-72
2021/05/23 04:49:26;;;;;;;3.20;0.90;;;;;;;11.61;nan;100348.72;5064189;28;20118;-72
2021/05/23 04:51:52;;;;;;;1.98;0.60;;;;;;;11.50;nan;100357.78;5066408;28;20121;-72
2021/05/23 04:54:17;;;;;;;2.40;0.90;;;;;;;11.53;nan;100365.38;5064332;28;20091;-72
2021/05/23 04:56:42;;;;;;;1.67;0.80;;;;;;;11.53;nan;100367.22;5065358;28;20071;-72
2021/05/23 04:59:08;;;;;;;2.25;1.00;;;;;;;11.58;nan;100376.31;5067529;28;20040;-72
2021/05/23 05:01:33;;;;;;;2.90;0.70;;;;;;;11.39;nan;100382.75;5065655;28;20516;-72
2021/05/23 05:03:58;;;;;;;2.25;0.70;;;;;;;11.34;nan;100390.31;5067378;28;20520;-72
2021/05/23 05:06:24;;;;;;;0.98;0.68;;;;;;;11.36;nan;100392.81;5065330;28;20225;-72
2021/05/23 05:08:49;;;;;;;1.27;0.65;;;;;;;11.18;nan;100391.09;5067210;28;20024;-72
2021/05/23 05:11:15;;;;;;;1.63;0.75;;;;;;;11.32;nan;100402.91;5069018;28;20087;-72
2021/05/23 05:13:40;;;;;;;2.00;0.80;;;;;;;11.23;nan;100396.75;5084646;28;20493;-72
2021/05/23 05:16:08;;;;;;;1.40;0.70;;;;;;;11.23;nan;100396.75;5074633;28;20082;-73
2021/05/23 05:18:34;;;;;;;2.38;0.90;;;;;;;11.19;nan;100402.50;5070240;28;20033;-72
2021/05/23 05:21:00;;;;;;;2.22;0.85;;;;;;;11.20;nan;100399.72;5075983;28;20047;-72
2021/05/23 05:23:25;;;;;;;1.92;0.85;;;;;;;11.17;nan;100407.13;5089627;28;20032;-72
2021/05/23 05:25:50;;;;;;;2.45;0.80;;;;;;;11.14;nan;100410.09;5071993;28;20140;-72
2021/05/23 05:28:16;;;;;;;2.33;0.90;;;;;;;11.17;nan;100412.41;5068231;28;20129;-72
2021/05/23 05:30:41;;;;;;;1.92;0.90;;;;;;;11.05;nan;100415.34;5056470;28;20039;-72
2021/05/23 05:33:06;;;;;;;1.98;0.80;;;;;;;11.12;nan;100420.00;5076174;28;20512;-72
2021/05/23 05:35:32;;;;;;;1.77;0.90;;;;;;;11.13;nan;100419.00;5065892;28;20033;-72
2021/05/23 05:37:57;;;;;;;1.70;0.80;;;;;;;11.18;nan;100433.44;5074322;28;20077;-72
2021/05/23 05:40:22;;;;;;;2.03;1.00;;;;;;;11.23;nan;100439.09;5083636;28;20075;-72
2021/05/23 05:42:48;;;;;;;1.90;0.90;;;;;;;11.23;nan;100436.44;5084256;28;20063;-72
2021/05/23 05:45:13;;;;;;;0.82;0.60;;;;;;;11.14;nan;100442.69;5085043;28;20032;-72
2021/05/23 05:47:39;;;;;;;2.15;1.10;;;;;;;11.20;nan;100443.84;5082365;28;20032;-72
2021/05/23 05:50:05;;;;;;;2.38;1.02;;;;;;;11.27;nan;100452.81;5087079;28;20055;-72
2021/05/23 05:52:30;;;;;;;1.33;0.80;;;;;;;11.29;nan;100456.16;5085004;28;20107;-72
2021/05/23 05:54:55;;;;;;;2.58;0.98;;;;;;;11.37;nan;100458.00;5085645;28;20032;-72
2021/05/23 05:57:21;;;;;;;2.97;1.13;;;;;;;11.52;nan;100461.72;5084521;28;20070;-71
2021/05/23 05:59:46;;;;;;;1.88;0.80;;;;;;;11.45;nan;100469.47;5082368;28;20386;-72
2021/05/23 06:02:12;;;;;;;1.83;0.80;;;;;;;11.32;nan;100471.72;5087432;28;20036;-73
2021/05/23 06:04:37;;;;;;;2.38;0.90;;;;;;;11.32;nan;100469.09;5087427;28;20111;-72
2021/05/23 06:07:03;;;;;;;1.77;0.80;;;;;;;11.35;nan;100467.94;5088834;28;20040;-72
2021/05/23 06:09:28;;;;;;;1.75;0.70;;;;;;;11.29;nan;100463.25;5087761;28;20031;-72
2021/05/23 06:11:53;;;;;;;1.45;0.90;;;;;;;11.57;nan;100467.34;5088443;28;20043;-72
2021/05/23 06:14:18;;;;;;;2.17;1.00;;;;;;;12.28;nan;100479.34;5066061;28;20094;-73
2021/05/23 06:16:44;;;;;;;1.80;0.80;;;;;;;13.24;nan;100479.59;5087914;28;20130;-72
2021/05/23 06:19:09;;;;;;;2.72;0.95;;;;;;;13.91;nan;100485.31;5082089;28;20229;-72
2021/05/23 06:21:35;;;;;;;1.80;0.90;;;;;;;13.68;nan;100482.63;5085015;28;20032;-72
2021/05/23 06:24:00;;;;;;;3.55;0.80;;;;;;;13.36;nan;100495.00;5083743;28;20047;-72
2021/05/23 06:26:26;;;;;;;3.50;1.02;;;;;;;13.01;nan;100492.75;5085596;28;20489;-72
2021/05/23 06:28:55;;;;;;;2.55;0.77;;;;;;;12.68;nan;100484.81;5067868;28;20098;-72
2021/05/23 06:31:22;;;;;;;3.70;0.98;;;;;;;12.33;nan;100494.75;5063552;28;20435;-72
2021/05/23 06:33:47;;;;;;;3.38;0.88;;;;;;;12.24;nan;100496.56;5066953;28;20467;-72
2021/05/23 06:36:13;;;;;;;2.15;0.80;;;;;;;12.14;nan;100501.19;5068502;28;20035;-72
2021/05/23 06:38:38;;;;;;;2.47;1.00;;;;;;;12.14;nan;100498.53;5088272;28;20123;-72
2021/05/23 06:41:03;;;;;;;2.33;0.80;;;;;;;12.11;nan;100499.69;5085841;28;20497;-71
2021/05/23 06:43:28;;;;;;;3.15;0.93;;;;;;;12.13;nan;100502.16;5080219;28;20110;-71
2021/05/23 06:45:54;;;;;;;3.00;1.23;;;;;;;12.01;nan;100498.16;5085040;28;20233;-72
2021/05/23 06:48:21;;;;;;;2.17;1.00;;;;;;;12.05;nan;100502.97;5072366;28;20040;-72
2021/05/23 06:50:46;;;;;;;4.25;1.20;;;;;;;12.12;nan;100503.16;5070370;28;20447;-72
2021/05/23 06:53:12;;;;;;;2.42;1.00;;;;;;;12.10;nan;100503.31;5040378;28;20033;-72
2021/05/23 06:55:37;;;;;;;2.45;1.05;;;;;;;12.00;nan;100518.53;5057396;28;20410;-72
2021/05/23 06:58:02;;;;;;;3.33;1.13;;;;;;;12.10;nan;100519.22;5063987;28;20068;-72
2021/05/23 07:00:28;;;;;;;1.95;1.00;;;;;;;12.06;nan;100523.22;5066475;28;20032;-72
2021/05/23 07:02:53;;;;;;;2.53;1.20;;;;;;;11.86;nan;100516.47;5067118;28;20402;-72
2021/05/23 07:05:18;;;;;;;3.10;1.00;;;;;;;11.96;nan;100519.84;5065113;28;20033;-72
2021/05/23 07:07:44;;;;;;;2.92;1.10;;;;;;;12.07;nan;100519.53;5063984;28;20035;-72
2021/05/23 07:10:10;;;;;;;2.38;1.10;;;;;;;12.09;nan;100522.88;5065462;28;20041;-72
2021/05/23 07:12:35;;;;;;;1.92;0.90;;;;;;;12.13;nan;100525.19;5056273;28;20037;-72
2021/05/23 07:15:01;;;;;;;3.70;1.33;;;;;;;12.25;nan;100526.53;5050205;28;20082;-72
2021/05/23 07:17:26;;;;;;;3.30;0.90;;;;;;;12.32;nan;100533.69;5064318;28;20032;-71
2021/05/23 07:19:51;;;;;;;1.52;0.93;;;;;;;12.37;nan;100541.16;5070576;28;20032;-70
2021/05/23 07:22:18;;;;;;;1.40;0.90;;;;;;;12.46;nan;100537.50;5067400;28;20076;-71
2021/05/23 07:24:43;;;;;;;2.05;1.00;;;;;;;12.41;nan;100531.06;5088490;28;20039;-71
2021/05/23 07:27:09;;;;;;;1.85;1.00;;;;;;;12.68;nan;100532.56;5076622;28;20402;-71
2021/05/23 07:29:34;;;;;;;2.85;1.20;;;;;;;12.74;nan;100545.19;5068722;28;20072;-71
2021/05/23 07:31:59;;;;;;;2.17;0.93;;;;;;;12.79;nan;100550.00;5069796;28;20048;-71
2021/05/23 07:34:25;;;;;;;3.58;1.30;;;;;;;12.90;nan;100542.53;5060757;28;20450;-72
2021/05/23 07:36:50;;;;;;;1.73;0.80;;;;;;;12.87;nan;100552.63;5068515;28;20118;-73
2021/05/23 07:39:16;;;;;;;2.58;1.20;;;;;;;12.93;nan;100544.00;5091950;28;20040;-71
2021/05/23 07:41:42;;;;;;;2.25;0.95;;;;;;;12.94;nan;100543.84;5086805;28;20449;-71
2021/05/23 07:44:07;;;;;;;2.67;0.85;;;;;;;12.96;nan;100546.31;5091303;28;20036;-72
2021/05/23 07:46:33;;;;;;;2.20;0.90;;;;;;;13.04;nan;100542.84;5087344;28;20029;-71
2021/05/23 07:48:59;;;;;;;2.63;1.05;;;;;;;13.08;nan;100541.50;5075014;28;20033;-71
2021/05/23 07:51:24;;;;;;;1.35;0.80;;;;;;;13.22;nan;100540.81;5086479;28;20035;-71
2021/05/23 07:53:51;;;;;;;2.03;0.73;;;;;;;13.82;nan;100547.50;5091132;28;20036;-71
2021/05/23 07:56:16;;;;;;;3.78;0.98;;;;;;;13.96;nan;100543.28;5088602;28;20485;-72
2021/05/23 07:58:42;;;;;;;4.40;1.20;;;;;;;13.99;nan;100546.44;5066718;28;20044;-72
2021/05/23 08:01:07;;;;;;;3.90;0.95;;;;;;;14.06;nan;100543.88;5090834;28;20105;-71
2021/05/23 08:03:32;;;;;;;2.13;0.90;;;;;;;14.07;nan;100555.38;5092391;28;20545;-72
2021/05/23 08:05:57;;;;;;;1.33;0.80;;;;;;;14.26;nan;100560.25;5093115;28;20032;-71
2021/05/23 08:08:23;;;;;;;2.10;0.90;;;;;;;14.12;nan;100569.78;5090590;28;20114;-73
2021/05/23 08:10:49;;;;;;;2.85;1.00;;;;;;;13.96;nan;100569.88;5083937;28;20036;-71
2021/05/23 08:13:14;;;;;;;2.25;0.85;;;;;;;13.84;nan;100568.59;5090838;28;20035;-71
2021/05/23 08:15:41;;;;;;;3.85;1.10;;;;;;;13.80;nan;100576.09;5090354;28;20530;-71
2021/05/23 08:18:08;;;;;;;1.80;0.90;;;;;;;13.66;nan;100577.63;5089984;28;20129;-72
2021/05/23 08:20:33;;;;;;;1.83;0.80;;;;;;;13.75;nan;100575.75;5088656;28;20032;-71
2021/05/23 08:22:59;;;;;;;2.95;0.90;;;;;;;13.81;nan;100573.25;5088678;28;20093;-72
2021/05/23 08:25:24;;;;;;;1.85;0.80;;;;;;;13.71;nan;100580.59;5089664;28;20036;-71
2021/05/23 08:27:49;;;;;;;3.25;0.80;;;;;;;13.48;nan;100582.31;5090479;28;20042;-71
2021/05/23 08:30:15;;;;;;;1.40;0.60;;;;;;;13.34;nan;100568.72;5085037;28;20036;-72
2021/05/23 08:32:41;;;;;;;2.45;0.77;;;;;;;13.35;nan;100578.34;5089980;28;20052;-71
2021/05/23 08:35:08;;;;;;;2.13;0.73;;;;;;;13.31;nan;100577.03;5089383;28;20028;-71
2021/05/23 08:37:33;;;;;;;1.98;0.77;;;;;;;13.30;nan;100579.84;5087501;28;20459;-71
2021/05/23 08:39:58;;;;;;;2.15;1.02;;;;;;;13.27;nan;100578.34;5090816;28;20028;-71
2021/05/23 08:42:24;;;;;;;1.88;0.88;;;;;;;13.26;nan;100584.63;5087694;28;20150;-72
2021/05/23 08:44:49;;;;;;;1.52;0.80;;;;;;;13.32;nan;100580.50;5071892;28;20047;-72
2021/05/23 08:47:15;;;;;;;2.58;0.82;;;;;;;13.30;nan;100586.00;5087887;28;20470;-72
2021/05/23 08:49:40;;;;;;;5.05;1.00;;;;;;;13.13;nan;100590.47;5086649;28;20032;-72
2021/05/23 08:52:05;;;;;;;1.83;0.60;;;;;;;13.16;nan;100584.00;5090268;28;20064;-72
2021/05/23 08:54:33;;;;;;;3.17;0.90;;;;;;;13.12;nan;100588.78;5089959;28;20043;-71
2021/05/23 08:56:58;;;;;;;1.95;0.80;;;;;;;13.36;nan;100585.31;5088123;28;20464;-71
2021/05/23 08:59:24;;;;;;;2.38;1.00;;;;;;;13.41;nan;100587.47;5087092;28;20120;-71
2021/05/23 09:01:49;;;;;;;1.42;0.63;;;;;;;13.41;nan;100586.66;5071688;28;20490;-71
2021/05/23 09:04:17;;;;;;;2.38;0.80;;;;;;;13.31;nan;100586.81;5089083;28;20036;-72
2021/05/23 09:06:44;;;;;;;3.50;1.00;;;;;;;13.23;nan;100585.00;5089031;28;20500;-71
2021/05/23 09:09:12;;;;;;;1.25;0.70;;;;;;;13.30;nan;100585.16;5078303;28;20046;-71
2021/05/23 09:11:49;;;;;;;2.65;0.80;;;;;;;13.46;nan;100581.66;5088992;28;20051;-71
2021/05/23 09:14:14;;;;;;;1.67;0.85;;;;;;;13.64;nan;100595.56;5089760;28;20229;-72
2021/05/23 09:16:40;;;;;;;3.38;1.02;;;;;;;14.03;nan;100592.09;5089117;28;20378;-72
2021/05/23 09:19:06;;;;;;;2.28;0.80;;;;;;;14.68;nan;100600.75;5090263;28;20028;-71
2021/05/23 09:21:34;;;;;;;2.92;0.90;;;;;;;15.23;nan;100594.31;5086945;28;20696;-71
2021/05/23 09:24:09;;;;;;;2.45;0.70;;;;;;;15.47;nan;100594.13;5071988;28;20032;-71
2021/05/23 09:26:40;;;;;;;2.53;0.82;;;;;;;15.70;nan;100593.22;5089259;28;20126;-72
2021/05/23 09:29:07;;;;;;;;;;;;;;;16.15;nan;100583.34;5090037;28;20043;-71
2021/05/23 09:31:33;;;;;;;2.05;0.60;;;;;;;16.68;nan;100583.91;5088269;28;19948;-72
2021/05/23 09:33:58;;;;;;;2.38;0.70;;;;;;;16.44;nan;100589.63;5074573;28;20119;-71
2021/05/23 09:36:24;;;;;;;1.77;0.73;;;;;;;16.67;nan;100587.63;5069272;28;20126;-71
2021/05/23 09:38:50;;;;;;;1.00;0.60;;;;;;;16.78;nan;100594.31;5079132;28;20145;-71
2021/05/23 09:41:18;;;;;;;2.45;0.55;;;;;;;17.09;nan;100596.69;5079883;28;20061;-71
2021/05/23 09:43:43;;;;;;;1.63;0.60;;;;;;;17.21;nan;100607.66;5068043;28;20135;-71
2021/05/23 09:46:08;;;;;;;2.17;0.70;;;;;;;17.19;nan;100604.34;5068576;28;20540;-72
2021/05/23 09:48:34;;;;;;;0.90;0.55;;;;;;;17.06;nan;100602.38;5070376;28;20600;-72
2021/05/23 09:51:10;;;;;;;2.50;0.90;;;;;;;17.51;nan;100597.59;5072537;28;20037;-71
2021/05/23 09:53:36;;;;;;;3.72;0.80;;;;;;;17.81;nan;100602.75;5087968;28;20052;-72
2021/05/23 09:56:27;;;;;;;1.73;0.68;;;;;;;17.85;nan;100595.97;5083711;28;20028;-72
2021/05/23 09:58:53;;;;;;;2.05;0.70;;;;;;;18.16;nan;100603.56;5060283;28;20080;-72
2021/05/23 10:01:31;;;;;;;2.55;0.90;;;;;;;18.57;nan;100599.97;5088000;28;20134;-71
2021/05/23 10:03:58;;;;;;;1.40;0.60;;;;;;;18.98;nan;100595.53;5088841;28;20040;-71
2021/05/23 10:06:36;;;;;;;2.28;0.80;;;;;;;18.77;nan;100599.22;5079314;28;20032;-72
2021/05/23 10:09:02;;;;;;;1.10;0.70;;;;;;;19.00;nan;100593.47;5057053;28;20540;-71
2021/05/23 10:11:27;;;;;;;1.42;0.57;;;;;;;18.84;nan;100600.03;5076575;28;20056;-71
2021/05/23 10:13:53;;;;;;;1.98;0.70;;;;;;;18.85;nan;100591.81;5079373;28;20047;-71
2021/05/23 10:16:19;;;;;;;1.55;0.50;;;;;;;18.68;nan;100598.53;5088885;28;20078;-72
2021/05/23 10:18:46;;;;;;;1.23;0.40;;;;;;;18.97;nan;100604.56;5070045;28;20037;-71
2021/05/23 10:21:12;;;;;;;2.80;0.77;;;;;;;18.62;nan;100610.06;5063775;28;20033;-71
2021/05/23 10:23:52;;;;;;;2.42;0.82;;;;;;;18.18;nan;100606.81;5068290;28;20032;-72
2021/05/23 10:26:21;;;;;;;1.50;0.57;;;;;;;17.74;nan;100594.66;5063220;28;20037;-71
2021/05/23 10:28:49;;;;;;;1.13;0.60;;;;;;;17.50;nan;100603.16;5063642;28;20029;-71
2021/05/23 10:31:15;;;;;;;3.65;0.90;;;;;;;17.35;nan;100609.44;5069449;28;20588;-71
2021/05/23 10:33:53;;;;;;;1.50;0.82;;;;;;;17.25;nan;100602.75;5067819;28;20112;-71
2021/05/23 10:36:30;;;;;;;1.75;0.50;;;;;;;17.38;nan;100605.53;5080788;28;20032;-71
2021/05/23 10:38:57;;;;;;;1.73;0.70;;;;;;;17.25;nan;100614.25;5063891;28;20766;-71
2021/05/23 10:41:22;;;;;;;2.38;0.70;;;;;;;17.27;nan;100611.41;5087548;28;20039;-71
2021/05/23 10:44:00;;;;;;;2.03;0.70;;;;;;;17.03;nan;100620.66;5069764;28;20421;-71
2021/05/23 10:46:26;;;;;;;2.40;0.70;;;;;;;16.87;nan;100613.72;5088040;28;20193;-71
2021/05/23 10:49:00;;;;;;;1.67;0.50;;;;;;;16.59;nan;100614.44;5080575;28;20147;-71
2021/05/23 10:51:26;;;;;;;2.95;0.90;;;;;;;16.62;nan;100614.06;5074659;28;20512;-71
2021/05/23 10:53:53;;;;;;;1.20;0.57;;;;;;;16.87;nan;100609.19;5070066;28;20032;-71
2021/05/23 10:56:24;;;;;;;1.83;0.60;;;;;;;16.95;nan;100616.28;5065316;28;20028;-71
2021/05/23 10:58:51;;;;;;;1.40;0.70;;;;;;;17.15;nan;100621.78;5059574;28;20032;-71
2021/05/23 11:01:18;;;;;;;1.35;0.70;;;;;;;17.02;nan;100610.97;5047610;28;20033;-71
2021/05/23 11:03:43;;;;;;;1.23;0.55;;;;;;;16.98;nan;100618.56;5065229;28;20093;-71
2021/05/23 11:06:09;;;;;;;2.17;0.60;;;;;;;16.99;nan;100617.53;5078335;28;20485;-71
2021/05/23 11:08:36;;;;;;;1.38;0.57;;;;;;;16.93;nan;100612.97;5069953;28;20517;-71
2021/05/23 11:11:02;;;;;;;2.22;0.70;;;;;;;16.72;nan;100616.44;5072459;28;20032;-72
2021/05/23 11:13:30;;;;;;;1.23;0.55;;;;;;;16.38;nan;100622.44;5072177;28;20028;-71
2021/05/23 11:16:08;;;;;;;1.77;0.65;;;;;;;16.29;nan;100617.19;5072700;28;20029;-71
2021/05/23 11:18:33;;;;;;;2.42;0.80;;;;;;;15.60;nan;100654.78;5090730;28;20028;-71
2021/05/23 11:21:02;;;;;;;2.15;0.70;;;;;;;14.54;nan;100674.19;5092847;28;20396;-70
2021/05/23 11:23:28;;;;;;;1.95;0.75;;;;;;;14.08;nan;100655.41;5092571;28;20036;-71
2021/05/23 11:26:11;;;;;;;1.63;0.70;;;;;;;13.79;nan;100652.31;5093254;28;20043;-72
2021/05/23 11:28:38;;;;;;;2.67;0.85;;;;;;;13.67;nan;100660.81;5072966;28;20139;-74
2021/05/23 11:31:04;;;;;;;1.58;0.60;;;;;;;13.87;nan;100640.00;5072912;28;20417;-71
2021/05/23 11:33:30;;;;;;;0.90;0.60;;;;;;;14.19;nan;100637.25;5067577;28;20035;-71
2021/05/23 11:35:55;;;;;;;1.63;0.80;;;;;;;14.58;nan;100646.22;5071242;28;20037;-71
2021/05/23 11:38:32;;;;;;;1.70;0.65;;;;;;;14.77;nan;100631.66;5089250;28;20062;-71
2021/05/23 11:40:57;;;;;;;1.80;0.68;;;;;;;14.63;nan;100643.88;5072329;28;20033;-71